createdAt,value
2018-03-30T00:00:23.177Z,0
2018-03-30T00:01:23.072Z,0
2018-03-30T00:02:23.171Z,0
2018-03-30T00:03:23.100Z,0
2018-03-30T00:04:23.136Z,0
2018-03-30T00:05:23.092Z,0
2018-03-30T00:06:23.181Z,0
2018-03-30T00:07:23.125Z,0
2018-03-30T00:08:23.098Z,0
2018-03-30T00:09:23.181Z,0
2018-03-30T00:10:23.106Z,0
2018-03-30T00:11:23.139Z,0
2018-03-30T00:12:23.133Z,0
2018-03-30T00:13:23.187Z,0
2018-03-30T00:14:23.105Z,0
2018-03-30T00:15:23.102Z,0
2018-03-30T00:16:23.196Z,0
2018-03-30T00:17:23.202Z,0
2018-03-30T00:18:23.147Z,0
2018-03-30T00:19:23.197Z,0
2018-03-30T00:20:23.144Z,0
2018-03-30T00:21:23.168Z,0
2018-03-30T00:22:23.152Z,0
2018-03-30T00:23:23.192Z,0
2018-03-30T00:24:23.146Z,0
2018-03-30T00:25:23.144Z,0
2018-03-30T00:26:23.208Z,0
2018-03-30T00:27:23.186Z,0
2018-03-30T00:28:23.153Z,0
2018-03-30T00:29:23.193Z,0
2018-03-30T00:30:23.088Z,0
2018-03-30T00:31:23.195Z,0
2018-03-30T00:32:23.203Z,0
2018-03-30T00:33:23.158Z,0
2018-03-30T00:34:23.120Z,0
2018-03-30T00:35:23.151Z,0
2018-03-30T00:36:23.162Z,0
2018-03-30T00:37:23.152Z,0
2018-03-30T00:38:23.095Z,0
2018-03-30T00:39:23.207Z,0
2018-03-30T00:40:23.217Z,0
2018-03-30T00:41:23.091Z,0
2018-03-30T00:42:23.112Z,0
2018-03-30T00:43:23.120Z,0
2018-03-30T00:44:23.156Z,0
2018-03-30T00:45:23.093Z,0
2018-03-30T00:46:23.117Z,0
2018-03-30T00:47:23.207Z,0
2018-03-30T00:48:23.155Z,0
2018-03-30T00:49:23.220Z,0
2018-03-30T00:50:23.101Z,0
2018-03-30T00:51:23.164Z,0
2018-03-30T00:52:23.097Z,0
2018-03-30T00:53:23.204Z,0
2018-03-30T00:54:23.164Z,0
2018-03-30T00:55:23.131Z,0
2018-03-30T00:56:23.103Z,0
2018-03-30T00:57:23.190Z,0
2018-03-30T00:58:23.165Z,0
2018-03-30T00:59:23.219Z,0
2018-03-30T01:00:23.292Z,0
2018-03-30T01:01:23.220Z,0
2018-03-30T01:02:23.169Z,0
2018-03-30T01:03:23.169Z,0
2018-03-30T01:04:23.250Z,0
2018-03-30T01:05:23.171Z,0
2018-03-30T01:06:23.132Z,0
2018-03-30T01:07:23.223Z,0
2018-03-30T01:08:23.132Z,0
2018-03-30T01:09:23.217Z,0
2018-03-30T01:10:23.140Z,0
2018-03-30T01:11:23.113Z,0
2018-03-30T01:12:23.127Z,0
2018-03-30T01:13:23.222Z,0
2018-03-30T01:14:23.225Z,0
2018-03-30T01:15:23.108Z,0
2018-03-30T01:16:23.110Z,0
2018-03-30T01:17:23.226Z,0
2018-03-30T01:18:23.229Z,0
2018-03-30T01:19:23.217Z,0
2018-03-30T01:20:23.229Z,0
2018-03-30T01:21:23.119Z,0
2018-03-30T01:22:23.182Z,0
2018-03-30T01:23:23.149Z,0
2018-03-30T01:24:23.184Z,0
2018-03-30T01:25:23.148Z,0
2018-03-30T01:26:23.118Z,0
2018-03-30T01:27:23.114Z,0
2018-03-30T01:28:23.237Z,0
2018-03-30T01:29:23.124Z,0
2018-03-30T01:30:23.235Z,0
2018-03-30T01:31:23.238Z,0
2018-03-30T01:32:23.242Z,0
2018-03-30T01:33:23.121Z,0
2018-03-30T01:34:23.233Z,0
2018-03-30T01:35:23.153Z,0
2018-03-30T01:36:23.232Z,0
2018-03-30T01:37:23.184Z,0
2018-03-30T01:38:23.154Z,0
2018-03-30T01:39:23.196Z,0
2018-03-30T01:40:23.234Z,0
2018-03-30T01:41:23.164Z,0
2018-03-30T01:42:23.195Z,0
2018-03-30T01:43:23.239Z,0
2018-03-30T01:44:23.154Z,0
2018-03-30T01:45:23.187Z,0
2018-03-30T01:46:23.250Z,0
2018-03-30T01:47:23.160Z,0
2018-03-30T01:48:23.252Z,0
2018-03-30T01:49:23.153Z,0
2018-03-30T01:50:23.168Z,0
2018-03-30T01:51:23.169Z,0
2018-03-30T01:52:23.253Z,0
2018-03-30T01:53:23.131Z,0
2018-03-30T01:54:23.157Z,0
2018-03-30T01:55:23.163Z,0
2018-03-30T01:56:23.160Z,0
2018-03-30T01:57:23.246Z,0
2018-03-30T01:58:23.208Z,0
2018-03-30T01:59:23.244Z,0
2018-03-30T02:00:23.203Z,0
2018-03-30T02:01:23.142Z,0
2018-03-30T02:02:23.143Z,0
2018-03-30T02:03:23.253Z,0
2018-03-30T02:04:23.203Z,0
2018-03-30T02:05:23.213Z,0
2018-03-30T02:06:23.210Z,0
2018-03-30T02:07:23.260Z,0
2018-03-30T02:08:23.228Z,0
2018-03-30T02:09:23.262Z,0
2018-03-30T02:10:23.209Z,0
2018-03-30T02:11:23.237Z,0
2018-03-30T02:12:23.257Z,0
2018-03-30T02:13:23.263Z,0
2018-03-30T02:14:23.261Z,0
2018-03-30T02:15:23.234Z,0
2018-03-30T02:16:23.149Z,0
2018-03-30T02:17:23.173Z,0
2018-03-30T02:18:23.152Z,0
2018-03-30T02:19:23.175Z,0
2018-03-30T02:20:23.268Z,0
2018-03-30T02:21:23.220Z,0
2018-03-30T02:22:23.273Z,0
2018-03-30T02:23:23.187Z,0
2018-03-30T02:24:23.224Z,0
2018-03-30T02:25:23.275Z,0
2018-03-30T02:26:23.180Z,0
2018-03-30T02:27:23.221Z,0
2018-03-30T02:28:23.272Z,0
2018-03-30T02:29:23.222Z,0
2018-03-30T02:30:23.160Z,0
2018-03-30T02:31:23.164Z,0
2018-03-30T02:32:23.222Z,0
2018-03-30T02:33:23.160Z,0
2018-03-30T02:34:23.225Z,0
2018-03-30T02:35:23.223Z,0
2018-03-30T02:36:23.231Z,0
2018-03-30T02:37:23.233Z,0
2018-03-30T02:38:23.169Z,0
2018-03-30T02:39:23.272Z,0
2018-03-30T02:40:23.192Z,0
2018-03-30T02:41:23.160Z,0
2018-03-30T02:42:23.192Z,0
2018-03-30T02:43:23.271Z,0
2018-03-30T02:44:23.167Z,0
2018-03-30T02:45:27.549Z,0
2018-03-30T02:46:23.162Z,0
2018-03-30T02:47:23.169Z,0
2018-03-30T02:48:23.291Z,0
2018-03-30T02:49:23.260Z,0
2018-03-30T02:50:23.287Z,0
2018-03-30T02:51:23.326Z,0
2018-03-30T02:52:23.252Z,0
2018-03-30T02:53:23.235Z,0
2018-03-30T02:54:23.264Z,0
2018-03-30T02:55:23.242Z,0
2018-03-30T02:56:23.235Z,0
2018-03-30T02:57:23.182Z,0
2018-03-30T02:58:23.264Z,0
2018-03-30T02:59:23.239Z,0
2018-03-30T03:00:23.237Z,0
2018-03-30T03:01:23.266Z,0
2018-03-30T03:02:23.247Z,0
2018-03-30T03:03:23.298Z,0
2018-03-30T03:04:23.203Z,0
2018-03-30T03:05:23.305Z,0
2018-03-30T03:06:23.249Z,0
2018-03-30T03:07:23.215Z,0
2018-03-30T03:08:23.254Z,0
2018-03-30T03:09:23.251Z,0
2018-03-30T03:10:23.311Z,0
2018-03-30T03:11:23.247Z,0
2018-03-30T03:12:23.210Z,0
2018-03-30T03:13:23.302Z,0
2018-03-30T03:14:23.295Z,0
2018-03-30T03:15:23.294Z,0
2018-03-30T03:16:23.187Z,0
2018-03-30T03:17:23.297Z,0
2018-03-30T03:18:23.221Z,0
2018-03-30T03:19:23.259Z,0
2018-03-30T03:20:23.308Z,0
2018-03-30T03:21:23.192Z,0
2018-03-30T03:22:23.252Z,0
2018-03-30T03:23:23.224Z,0
2018-03-30T03:24:23.251Z,0
2018-03-30T03:25:23.219Z,0
2018-03-30T03:26:23.261Z,0
2018-03-30T03:27:23.195Z,0
2018-03-30T03:28:23.225Z,0
2018-03-30T03:29:23.201Z,0
2018-03-30T03:30:23.228Z,0
2018-03-30T03:31:23.199Z,0
2018-03-30T03:32:23.226Z,0
2018-03-30T03:33:23.308Z,0
2018-03-30T03:34:23.325Z,0
2018-03-30T03:35:23.225Z,0
2018-03-30T03:36:23.266Z,0
2018-03-30T03:37:23.308Z,0
2018-03-30T03:38:23.224Z,0
2018-03-30T03:39:23.230Z,0
2018-03-30T03:40:23.319Z,0
2018-03-30T03:41:23.370Z,0
2018-03-30T03:42:23.264Z,0
2018-03-30T03:43:23.291Z,0
2018-03-30T03:44:23.271Z,0
2018-03-30T03:45:23.269Z,0
2018-03-30T03:46:23.310Z,0
2018-03-30T03:47:23.236Z,0
2018-03-30T03:48:23.272Z,0
2018-03-30T03:49:23.206Z,0
2018-03-30T03:50:23.274Z,0
2018-03-30T03:51:23.210Z,0
2018-03-30T03:52:23.270Z,0
2018-03-30T03:53:23.240Z,0
2018-03-30T03:54:23.228Z,0
2018-03-30T03:55:23.324Z,0
2018-03-30T03:56:23.325Z,0
2018-03-30T03:57:23.234Z,0
2018-03-30T03:58:23.333Z,0
2018-03-30T03:59:23.239Z,0
2018-03-30T04:00:23.244Z,0
2018-03-30T04:01:23.333Z,0
2018-03-30T04:02:23.212Z,0
2018-03-30T04:03:23.283Z,0
2018-03-30T04:04:23.331Z,0
2018-03-30T04:05:23.246Z,0
2018-03-30T04:06:23.244Z,0
2018-03-30T04:07:23.336Z,0
2018-03-30T04:08:23.215Z,0
2018-03-30T04:09:23.332Z,0
2018-03-30T04:10:23.253Z,0
2018-03-30T04:11:23.311Z,0
2018-03-30T04:12:23.284Z,0
2018-03-30T04:13:23.315Z,0
2018-03-30T04:14:23.289Z,0
2018-03-30T04:15:23.221Z,0
2018-03-30T04:16:23.251Z,0
2018-03-30T04:17:23.251Z,0
2018-03-30T04:18:23.294Z,0
2018-03-30T04:19:23.258Z,0
2018-03-30T04:20:23.339Z,0
2018-03-30T04:21:23.343Z,0
2018-03-30T04:22:23.249Z,0
2018-03-30T04:23:23.314Z,0
2018-03-30T04:24:23.335Z,0
2018-03-30T04:25:23.319Z,0
2018-03-30T04:26:23.250Z,0
2018-03-30T04:27:23.260Z,4
2018-03-30T04:28:23.234Z,4
2018-03-30T04:29:23.236Z,0
2018-03-30T04:30:23.252Z,0
2018-03-30T04:31:23.264Z,4
2018-03-30T04:32:23.352Z,4
2018-03-30T04:33:23.324Z,4
2018-03-30T04:34:23.257Z,8
2018-03-30T04:35:23.392Z,8
2018-03-30T04:36:23.235Z,8
2018-03-30T04:37:23.259Z,12
2018-03-30T04:38:23.234Z,12
2018-03-30T04:39:23.236Z,16
2018-03-30T04:40:23.242Z,20
2018-03-30T04:41:23.326Z,24
2018-03-30T04:42:23.358Z,28
2018-03-30T04:43:23.356Z,32
2018-03-30T04:44:23.304Z,40
2018-03-30T04:45:23.276Z,48
2018-03-30T04:46:23.242Z,56
2018-03-30T04:47:23.327Z,64
2018-03-30T04:48:23.363Z,72
2018-03-30T04:49:23.357Z,84
2018-03-30T04:50:23.350Z,96
2018-03-30T04:51:23.316Z,108
2018-03-30T04:52:23.356Z,128
2018-03-30T04:53:23.310Z,152
2018-03-30T04:54:23.332Z,180
2018-03-30T04:55:23.305Z,204
2018-03-30T04:56:23.366Z,228
2018-03-30T04:57:23.273Z,248
2018-03-30T04:58:23.281Z,264
2018-03-30T04:59:23.253Z,288
2018-03-30T05:00:23.283Z,316
2018-03-30T05:01:23.245Z,348
2018-03-30T05:02:23.356Z,376
2018-03-30T05:03:23.326Z,408
2018-03-30T05:04:23.259Z,436
2018-03-30T05:05:23.289Z,468
2018-03-30T05:06:23.359Z,504
2018-03-30T05:07:23.257Z,540
2018-03-30T05:08:23.369Z,588
2018-03-30T05:09:23.376Z,632
2018-03-30T05:10:23.325Z,684
2018-03-30T05:11:23.365Z,740
2018-03-30T05:12:23.375Z,800
2018-03-30T05:13:23.375Z,856
2018-03-30T05:14:23.289Z,912
2018-03-30T05:15:23.319Z,976
2018-03-30T05:16:23.378Z,1040
2018-03-30T05:17:23.281Z,1104
2018-03-30T05:18:23.379Z,1172
2018-03-30T05:19:23.372Z,1244
2018-03-30T05:20:23.374Z,1324
2018-03-30T05:21:23.386Z,1408
2018-03-30T05:22:23.381Z,1496
2018-03-30T05:23:23.383Z,1588
2018-03-30T05:24:23.257Z,1680
2018-03-30T05:25:23.321Z,1764
2018-03-30T05:26:23.334Z,1856
2018-03-30T05:27:23.377Z,1944
2018-03-30T05:28:23.296Z,2028
2018-03-30T05:29:23.320Z,2112
2018-03-30T05:30:23.324Z,2192
2018-03-30T05:31:23.321Z,2280
2018-03-30T05:32:23.296Z,2360
2018-03-30T05:33:23.376Z,2448
2018-03-30T05:34:23.385Z,2544
2018-03-30T05:35:23.296Z,2636
2018-03-30T05:36:23.294Z,2732
2018-03-30T05:37:23.369Z,2820
2018-03-30T05:38:23.359Z,2908
2018-03-30T05:39:23.387Z,2992
2018-03-30T05:40:23.360Z,3076
2018-03-30T05:41:23.365Z,3164
2018-03-30T05:42:23.358Z,3248
2018-03-30T05:43:23.267Z,3324
2018-03-30T05:44:23.328Z,3392
2018-03-30T05:45:23.337Z,3444
2018-03-30T05:46:23.346Z,3484
2018-03-30T05:47:23.361Z,3524
2018-03-30T05:48:24.282Z,3568
2018-03-30T05:49:23.369Z,3616
2018-03-30T05:50:23.366Z,3668
2018-03-30T05:51:23.308Z,3724
2018-03-30T05:52:23.308Z,3804
2018-03-30T05:53:23.278Z,3892
2018-03-30T05:54:23.337Z,3996
2018-03-30T05:55:23.304Z,4112
2018-03-30T05:56:23.300Z,4224
2018-03-30T05:57:23.398Z,4356
2018-03-30T05:58:23.273Z,4488
2018-03-30T05:59:23.373Z,4628
2018-03-30T06:00:23.373Z,4772
2018-03-30T06:01:23.398Z,4932
2018-03-30T06:02:23.448Z,5112
2018-03-30T06:03:23.356Z,5304
2018-03-30T06:04:23.346Z,5508
2018-03-30T06:05:23.377Z,5728
2018-03-30T06:06:23.347Z,5988
2018-03-30T06:07:23.349Z,6260
2018-03-30T06:08:23.376Z,6532
2018-03-30T06:09:23.407Z,6820
2018-03-30T06:10:23.351Z,7096
2018-03-30T06:11:23.399Z,7380
2018-03-30T06:12:23.403Z,7664
2018-03-30T06:13:23.368Z,7968
2018-03-30T06:14:23.410Z,8280
2018-03-30T06:15:23.375Z,8620
2018-03-30T06:16:23.301Z,8960
2018-03-30T06:17:23.351Z,9332
2018-03-30T06:18:23.294Z,9708
2018-03-30T06:19:23.325Z,10072
2018-03-30T06:20:23.346Z,10452
2018-03-30T06:21:23.326Z,10832
2018-03-30T06:22:23.404Z,11188
2018-03-30T06:23:23.413Z,11560
2018-03-30T06:24:23.354Z,11936
2018-03-30T06:25:23.291Z,12356
2018-03-30T06:26:23.361Z,12764
2018-03-30T06:27:23.304Z,13180
2018-03-30T06:28:23.324Z,13576
2018-03-30T06:29:23.381Z,13980
2018-03-30T06:30:23.413Z,14352
2018-03-30T06:31:23.332Z,14692
2018-03-30T06:32:23.395Z,14900
2018-03-30T06:33:23.414Z,15060
2018-03-30T06:34:23.332Z,15140
2018-03-30T06:35:23.334Z,15172
2018-03-30T06:36:23.368Z,15148
2018-03-30T06:37:23.360Z,15200
2018-03-30T06:38:23.332Z,15256
2018-03-30T06:39:23.427Z,15512
2018-03-30T06:40:23.309Z,15672
2018-03-30T06:41:23.392Z,16108
2018-03-30T06:42:23.421Z,16532
2018-03-30T06:43:23.399Z,17080
2018-03-30T06:44:23.307Z,17272
2018-03-30T06:45:23.374Z,17464
2018-03-30T06:46:23.339Z,18216
2018-03-30T06:47:23.365Z,19180
2018-03-30T06:48:23.399Z,20048
2018-03-30T06:49:23.396Z,20712
2018-03-30T06:50:23.371Z,21664
2018-03-30T06:51:23.422Z,22592
2018-03-30T06:52:23.427Z,22848
2018-03-30T06:53:23.337Z,23392
2018-03-30T06:54:23.313Z,24352
2018-03-30T06:55:23.427Z,23968
2018-03-30T06:56:23.344Z,24384
2018-03-30T06:57:23.431Z,24352
2018-03-30T06:58:23.318Z,24736
2018-03-30T06:59:23.316Z,24608
2018-03-30T07:00:23.313Z,25088
2018-03-30T07:01:23.342Z,26112
2018-03-30T07:02:23.435Z,28960
2018-03-30T07:03:23.431Z,31648
2018-03-30T07:04:23.351Z,29184
2018-03-30T07:05:23.428Z,29728
2018-03-30T07:06:23.346Z,28192
2018-03-30T07:07:23.442Z,27104
2018-03-30T07:08:23.323Z,28672
2018-03-30T07:09:23.331Z,28352
2018-03-30T07:10:23.382Z,27904
2018-03-30T07:11:23.319Z,29664
2018-03-30T07:12:23.443Z,31680
2018-03-30T07:13:23.442Z,39520
2018-03-30T07:14:23.417Z,38336
2018-03-30T07:15:23.415Z,40768
2018-03-30T07:16:23.383Z,36576
2018-03-30T07:17:23.418Z,40256
2018-03-30T07:18:23.440Z,42912
2018-03-30T07:19:23.449Z,49088
2018-03-30T07:20:23.335Z,52960
2018-03-30T07:21:23.446Z,64096
2018-03-30T07:22:23.332Z,74400
2018-03-30T07:23:23.331Z,61472
2018-03-30T07:24:23.329Z,92320
2018-03-30T07:25:23.389Z,114944
2018-03-30T07:26:23.365Z,132736
2018-03-30T07:27:23.359Z,135360
2018-03-30T07:28:23.363Z,128672
2018-03-30T07:29:23.426Z,125248
2018-03-30T07:30:23.333Z,143168
2018-03-30T07:31:23.343Z,174784
2018-03-30T07:32:23.431Z,126944
2018-03-30T07:33:23.364Z,131392
2018-03-30T07:34:23.397Z,144672
2018-03-30T07:35:23.458Z,160128
2018-03-30T07:36:23.459Z,153504
2018-03-30T07:37:23.382Z,149856
2018-03-30T07:38:23.503Z,136704
2018-03-30T07:39:23.375Z,121152
2018-03-30T07:40:23.463Z,111008
2018-03-30T07:41:23.388Z,94720
2018-03-30T07:42:23.460Z,88384
2018-03-30T07:43:23.463Z,91040
2018-03-30T07:44:23.342Z,84096
2018-03-30T07:45:23.462Z,78752
2018-03-30T07:46:23.438Z,82368
2018-03-30T07:47:23.350Z,91552
2018-03-30T07:48:23.351Z,73152
2018-03-30T07:49:23.438Z,76864
2018-03-30T07:50:23.436Z,67552
2018-03-30T07:51:23.418Z,67616
2018-03-30T07:52:23.459Z,65728
2018-03-30T07:53:23.462Z,61280
2018-03-30T07:54:23.418Z,51712
2018-03-30T07:55:23.441Z,48224
2018-03-30T07:56:23.463Z,61728
2018-03-30T07:57:23.440Z,63232
2018-03-30T07:58:23.349Z,58048
2018-03-30T07:59:23.424Z,64000
2018-03-30T08:00:23.412Z,60864
2018-03-30T08:01:23.384Z,61984
2018-03-30T08:02:23.465Z,61600
2018-03-30T08:03:23.446Z,59680
2018-03-30T08:04:23.468Z,65696
2018-03-30T08:05:23.479Z,76256
2018-03-30T08:06:23.351Z,89952
2018-03-30T08:07:23.391Z,76128
2018-03-30T08:08:23.475Z,78496
2018-03-30T08:09:23.481Z,76800
2018-03-30T08:10:23.451Z,67680
2018-03-30T08:11:23.425Z,64032
2018-03-30T08:12:23.450Z,71456
2018-03-30T08:13:23.419Z,71232
2018-03-30T08:14:23.388Z,78368
2018-03-30T08:15:23.363Z,82656
2018-03-30T08:16:23.434Z,87616
2018-03-30T08:17:23.430Z,88064
2018-03-30T08:18:23.373Z,88544
2018-03-30T08:19:23.357Z,89216
2018-03-30T08:20:23.449Z,90304
2018-03-30T08:21:23.432Z,92576
2018-03-30T08:22:23.437Z,91584
2018-03-30T08:23:23.436Z,90464
2018-03-30T08:24:23.481Z,89856
2018-03-30T08:25:23.482Z,89888
2018-03-30T08:26:23.478Z,90496
2018-03-30T08:27:23.367Z,89152
2018-03-30T08:28:23.488Z,88352
2018-03-30T08:29:23.401Z,88800
2018-03-30T08:30:23.457Z,87744
2018-03-30T08:31:23.484Z,88096
2018-03-30T08:32:23.431Z,88352
2018-03-30T08:33:23.398Z,90528
2018-03-30T08:34:23.464Z,91168
2018-03-30T08:35:23.431Z,90592
2018-03-30T08:36:23.443Z,88832
2018-03-30T08:37:23.404Z,85632
2018-03-30T08:38:23.376Z,86016
2018-03-30T08:39:23.386Z,87296
2018-03-30T08:40:23.461Z,86176
2018-03-30T08:41:23.525Z,85088
2018-03-30T08:42:23.409Z,80256
2018-03-30T08:43:23.470Z,87392
2018-03-30T08:44:23.492Z,94080
2018-03-30T08:45:23.500Z,99488
2018-03-30T08:46:23.442Z,101056
2018-03-30T08:47:23.450Z,99744
2018-03-30T08:48:23.389Z,97344
2018-03-30T08:49:23.511Z,96000
2018-03-30T08:50:23.503Z,94464
2018-03-30T08:51:23.385Z,97312
2018-03-30T08:52:23.392Z,95584
2018-03-30T08:53:23.458Z,101472
2018-03-30T08:54:23.531Z,100128
2018-03-30T08:55:23.494Z,101888
2018-03-30T08:56:23.393Z,98944
2018-03-30T08:57:23.513Z,102400
2018-03-30T08:58:23.416Z,99136
2018-03-30T08:59:23.388Z,95744
2018-03-30T09:00:23.504Z,99968
2018-03-30T09:01:23.510Z,99872
2018-03-30T09:02:23.456Z,99264
2018-03-30T09:03:23.508Z,105728
2018-03-30T09:04:23.480Z,105280
2018-03-30T09:05:23.417Z,93472
2018-03-30T09:06:23.488Z,99840
2018-03-30T09:07:23.395Z,96352
2018-03-30T09:08:23.455Z,99392
2018-03-30T09:09:23.454Z,101216
2018-03-30T09:10:23.519Z,96064
2018-03-30T09:11:23.450Z,98272
2018-03-30T09:12:23.441Z,92480
2018-03-30T09:13:23.395Z,106176
2018-03-30T09:14:23.405Z,101856
2018-03-30T09:15:23.512Z,101632
2018-03-30T09:16:23.398Z,103392
2018-03-30T09:17:23.437Z,103968
2018-03-30T09:18:23.463Z,101920
2018-03-30T09:19:23.520Z,102144
2018-03-30T09:20:23.517Z,103584
2018-03-30T09:21:23.464Z,104128
2018-03-30T09:22:23.473Z,104928
2018-03-30T09:23:23.411Z,106272
2018-03-30T09:24:23.517Z,105408
2018-03-30T09:25:23.528Z,105888
2018-03-30T09:26:23.433Z,105536
2018-03-30T09:27:23.462Z,105280
2018-03-30T09:28:23.433Z,95264
2018-03-30T09:29:23.403Z,107776
2018-03-30T09:30:23.403Z,109760
2018-03-30T09:31:23.504Z,110208
2018-03-30T09:32:23.423Z,112064
2018-03-30T09:33:23.419Z,110080
2018-03-30T09:34:23.524Z,106752
2018-03-30T09:35:23.417Z,103040
2018-03-30T09:36:23.481Z,103808
2018-03-30T09:37:23.526Z,106656
2018-03-30T09:38:23.484Z,110496
2018-03-30T09:39:23.431Z,111712
2018-03-30T09:40:23.415Z,112800
2018-03-30T09:41:23.483Z,114496
2018-03-30T09:42:23.478Z,117536
2018-03-30T09:43:23.449Z,117568
2018-03-30T09:44:23.536Z,115424
2018-03-30T09:45:23.529Z,113472
2018-03-30T09:46:23.455Z,113248
2018-03-30T09:47:23.547Z,117408
2018-03-30T09:48:23.422Z,112480
2018-03-30T09:49:23.492Z,122496
2018-03-30T09:50:23.507Z,119136
2018-03-30T09:51:23.421Z,115264
2018-03-30T09:52:23.513Z,110816
2018-03-30T09:53:23.541Z,104736
2018-03-30T09:54:23.481Z,110528
2018-03-30T09:55:23.484Z,112416
2018-03-30T09:56:23.538Z,112832
2018-03-30T09:57:23.466Z,112320
2018-03-30T09:58:23.456Z,111680
2018-03-30T09:59:23.432Z,108288
2018-03-30T10:00:23.520Z,106560
2018-03-30T10:01:23.425Z,106144
2018-03-30T10:02:23.539Z,106176
2018-03-30T10:03:23.517Z,109632
2018-03-30T10:04:23.600Z,112384
2018-03-30T10:05:23.456Z,113792
2018-03-30T10:06:23.493Z,108608
2018-03-30T10:07:23.489Z,106912
2018-03-30T10:08:23.493Z,105984
2018-03-30T10:09:23.556Z,105824
2018-03-30T10:10:23.546Z,103936
2018-03-30T10:11:23.441Z,107456
2018-03-30T10:12:23.430Z,111136
2018-03-30T10:13:23.429Z,112672
2018-03-30T10:14:23.527Z,110624
2018-03-30T10:15:23.435Z,109792
2018-03-30T10:16:23.436Z,110912
2018-03-30T10:17:23.468Z,106784
2018-03-30T10:18:23.442Z,108832
2018-03-30T10:19:23.491Z,109472
2018-03-30T10:20:23.533Z,109984
2018-03-30T10:21:23.440Z,98016
2018-03-30T10:22:23.443Z,112864
2018-03-30T10:23:23.449Z,109376
2018-03-30T10:24:23.501Z,106368
2018-03-30T10:25:23.503Z,109600
2018-03-30T10:26:23.560Z,110304
2018-03-30T10:27:23.444Z,113344
2018-03-30T10:28:23.538Z,116800
2018-03-30T10:29:23.564Z,117824
2018-03-30T10:30:23.514Z,117344
2018-03-30T10:31:23.449Z,119488
2018-03-30T10:32:23.559Z,120800
2018-03-30T10:33:23.512Z,116256
2018-03-30T10:34:23.531Z,122304
2018-03-30T10:35:23.542Z,126208
2018-03-30T10:36:23.522Z,49984
2018-03-30T10:37:23.563Z,58400
2018-03-30T10:38:23.535Z,131168
2018-03-30T10:39:23.542Z,133056
2018-03-30T10:40:23.463Z,134080
2018-03-30T10:42:23.545Z,132608
2018-03-30T10:43:23.536Z,127776
2018-03-30T10:44:23.454Z,117632
2018-03-30T10:45:23.545Z,117600
2018-03-30T10:46:23.479Z,113536
2018-03-30T10:47:23.574Z,109856
2018-03-30T10:48:23.575Z,112000
2018-03-30T10:49:23.574Z,117760
2018-03-30T10:50:23.478Z,120768
2018-03-30T10:51:23.467Z,125952
2018-03-30T10:52:23.464Z,122688
2018-03-30T10:53:23.569Z,123264
2018-03-30T10:54:23.549Z,123520
2018-03-30T10:55:23.488Z,123264
2018-03-30T10:56:23.521Z,121344
2018-03-30T10:57:23.579Z,123616
2018-03-30T10:58:23.490Z,97376
2018-03-30T10:59:23.578Z,122080
2018-03-30T11:00:23.470Z,124992
2018-03-30T11:01:23.582Z,60160
2018-03-30T11:02:23.461Z,60096
2018-03-30T11:03:23.525Z,50368
2018-03-30T11:04:23.468Z,98208
2018-03-30T11:05:23.524Z,59040
2018-03-30T11:06:23.465Z,49632
2018-03-30T11:07:23.466Z,48224
2018-03-30T11:08:23.533Z,49632
2018-03-30T11:09:23.578Z,62112
2018-03-30T11:10:23.469Z,56928
2018-03-30T11:11:23.526Z,78496
2018-03-30T11:12:23.584Z,115904
2018-03-30T11:13:23.500Z,126592
2018-03-30T11:14:23.469Z,116896
2018-03-30T11:15:23.480Z,88480
2018-03-30T11:16:23.592Z,130304
2018-03-30T11:17:23.568Z,70176
2018-03-30T11:18:23.532Z,59232
2018-03-30T11:19:23.591Z,56576
2018-03-30T11:20:23.560Z,66016
2018-03-30T11:21:23.540Z,124384
2018-03-30T11:22:23.489Z,75936
2018-03-30T11:23:23.569Z,55904
2018-03-30T11:24:23.483Z,49888
2018-03-30T11:25:23.569Z,51104
2018-03-30T11:26:23.538Z,58496
2018-03-30T11:27:23.595Z,131648
2018-03-30T11:28:23.599Z,67456
2018-03-30T11:29:23.554Z,136736
2018-03-30T11:30:23.593Z,66336
2018-03-30T11:31:23.596Z,63968
2018-03-30T11:32:23.597Z,132000
2018-03-30T11:33:23.483Z,138624
2018-03-30T11:34:23.482Z,63328
2018-03-30T11:35:23.483Z,75968
2018-03-30T11:36:23.599Z,62688
2018-03-30T11:37:23.606Z,135072
2018-03-30T11:38:23.608Z,96064
2018-03-30T11:39:23.488Z,72096
2018-03-30T11:40:23.611Z,108320
2018-03-30T11:41:23.600Z,49696
2018-03-30T11:42:23.558Z,47648
2018-03-30T11:43:23.518Z,50848
2018-03-30T11:44:23.494Z,61856
2018-03-30T11:45:23.513Z,98368
2018-03-30T11:46:23.499Z,114912
2018-03-30T11:47:23.608Z,129728
2018-03-30T11:48:23.492Z,131296
2018-03-30T11:49:23.578Z,133344
2018-03-30T11:50:23.533Z,134784
2018-03-30T11:51:23.554Z,132256
2018-03-30T11:52:23.582Z,129824
2018-03-30T11:53:23.557Z,125888
2018-03-30T11:54:23.494Z,122592
2018-03-30T11:55:23.494Z,124576
2018-03-30T11:57:23.567Z,136160
2018-03-30T11:58:23.589Z,137184
2018-03-30T11:59:23.610Z,134880
2018-03-30T12:00:23.572Z,132096
2018-03-30T12:01:23.527Z,131136
2018-03-30T12:02:23.612Z,122336
2018-03-30T12:03:23.560Z,124224
2018-03-30T12:04:23.587Z,128640
2018-03-30T12:05:23.617Z,132544
2018-03-30T12:06:23.623Z,128704
2018-03-30T12:07:23.577Z,122880
2018-03-30T12:08:23.626Z,121600
2018-03-30T12:09:23.592Z,115936
2018-03-30T12:10:23.601Z,120736
2018-03-30T12:11:23.566Z,119456
2018-03-30T12:12:23.620Z,121792
2018-03-30T12:13:23.567Z,125600
2018-03-30T12:14:23.567Z,122240
2018-03-30T12:15:23.565Z,106656
2018-03-30T12:16:23.566Z,110112
2018-03-30T12:17:23.537Z,106304
2018-03-30T12:18:23.508Z,116192
2018-03-30T12:19:23.536Z,121376
2018-03-30T12:20:23.509Z,68448
2018-03-30T12:21:23.519Z,104320
2018-03-30T12:22:23.513Z,126752
2018-03-30T12:23:23.511Z,124992
2018-03-30T12:24:23.557Z,119296
2018-03-30T12:25:23.578Z,118336
2018-03-30T12:26:23.638Z,57792
2018-03-30T12:27:23.524Z,40672
2018-03-30T12:28:23.610Z,90592
2018-03-30T12:29:23.517Z,120288
2018-03-30T12:30:23.636Z,126112
2018-03-30T12:31:23.641Z,121920
2018-03-30T12:32:23.640Z,123104
2018-03-30T12:33:23.605Z,74112
2018-03-30T12:34:23.516Z,93984
2018-03-30T12:35:23.637Z,48448
2018-03-30T12:36:23.564Z,35072
2018-03-30T12:37:23.641Z,39712
2018-03-30T12:38:23.643Z,50464
2018-03-30T12:39:23.586Z,39936
2018-03-30T12:40:23.525Z,55648
2018-03-30T12:41:23.524Z,49728
2018-03-30T12:42:23.642Z,124032
2018-03-30T12:43:23.557Z,46592
2018-03-30T12:44:23.522Z,76288
2018-03-30T12:45:23.587Z,117312
2018-03-30T12:46:23.586Z,54624
2018-03-30T12:47:23.535Z,70784
2018-03-30T12:48:23.621Z,86432
2018-03-30T12:49:23.538Z,110208
2018-03-30T12:50:23.605Z,97952
2018-03-30T12:51:23.573Z,108448
2018-03-30T12:52:23.625Z,76832
2018-03-30T12:53:23.649Z,85600
2018-03-30T12:54:23.566Z,94432
2018-03-30T12:55:23.578Z,111712
2018-03-30T12:56:23.605Z,93728
2018-03-30T12:57:23.624Z,48064
2018-03-30T12:58:23.628Z,101760
2018-03-30T12:59:23.658Z,118688
2018-03-30T13:00:23.605Z,106528
2018-03-30T13:01:23.547Z,81984
2018-03-30T13:02:23.628Z,45984
2018-03-30T13:03:23.623Z,41696
2018-03-30T13:04:23.599Z,57280
2018-03-30T13:05:23.546Z,84608
2018-03-30T13:06:23.610Z,84736
2018-03-30T13:07:23.547Z,71552
2018-03-30T13:08:23.615Z,58304
2018-03-30T13:09:23.610Z,98016
2018-03-30T13:10:23.580Z,53408
2018-03-30T13:11:23.662Z,59488
2018-03-30T13:12:23.577Z,75360
2018-03-30T13:13:23.544Z,81280
2018-03-30T13:14:23.694Z,89312
2018-03-30T13:15:23.666Z,102816
2018-03-30T13:16:23.600Z,97440
2018-03-30T13:17:23.583Z,85248
2018-03-30T13:18:23.612Z,72704
2018-03-30T13:19:23.636Z,73920
2018-03-30T13:20:23.546Z,74848
2018-03-30T13:21:23.581Z,56352
2018-03-30T13:22:23.648Z,59264
2018-03-30T13:23:23.667Z,73504
2018-03-30T13:24:23.547Z,71840
2018-03-30T13:25:23.645Z,74784
2018-03-30T13:26:23.561Z,73984
2018-03-30T13:27:23.608Z,75808
2018-03-30T13:28:23.597Z,76896
2018-03-30T13:29:23.581Z,75904